トリブバン国際空港の過去48時間の天気

トリブバン国際空港 (Kathmandu Airport)

現在時刻: 2/6 02:37 +0545 (2/5 20:52 UTC) 以下の時間は現地時間です。

過去48時間のMETAR気象情報
時間 風向 風速(m/s) 視程 気温(℃) 湿度(%) 気圧(hPa) 天気現象
6 02:15 不定 1 7000m 9 87 1016
6 01:45 2 7000m 10 82 1017
6 01:15 2 7000m 10 82 1017
6 00:45 不定 1 7000m 10 82 1017
6 00:15 不定 1 7000m 10 82 1017
5 23:45 不定 1 7000m 11 76 1017
5 23:15 不定 1 7000m 11 76 1017
5 22:45 不定 1 7000m 11 76 1017
5 22:15 静穏 0 7000m 12 71 1017
5 21:45 2 7000m 12 71 1017
5 21:15 南南東 2 8000m 12 67 1017
5 20:45 南南東 2 8000m 13 62 1016
5 20:15 不定 1 8000m 13 67 1016
5 19:45 3 8000m 13 67 1016
5 19:15 南南西 3 8000m 14 59 1016
5 18:45 南南西 3 8000m 14 59 1015
5 18:15 南西 3 8000m 15 55 1015
5 17:45 南西 5 8000m 16 51 1014
5 17:15 南西 4 8000m 17 48 1014
5 16:45 南西 6 7000m 17 45 1013
5 16:15 南西 5 7000m 19 37 1013
5 15:45 南西 6 7000m 19 35 1013
5 15:15 南西 5 7000m 19 35 1013
5 14:45 南西 5 7000m 20 35 1014
5 14:15 南南西 4 7000m 20 35 1014
5 13:45 南東 2 7000m 20 40 1014
5 13:15 南西 2 7000m 20 40 1015
5 12:45 2 7000m 20 37 1015
5 12:15 東北東 2 7000m 20 37 1016
5 11:45 東北東 3 6000m 18 39 1016
5 11:15 南東 2 6000m 18 45 1017
5 10:45 東南東 2 4500m 17 52 1017 煙霧
5 10:15 不定 1 4000m 15 59 1018 煙霧
5 09:45 不定 1 3500m 14 63 1018 煙霧
5 09:15 不定 1 3000m 12 71 1018 もや
5 08:45 不定 1 2500m 10 82 1018 もや
5 08:15 不定 1 2500m 9 87 1017 もや
5 07:45 不定 1 2000m 8 87 1017 もや
5 07:15 不定 1 1500m 8 87 1016 もや
5 06:45 静穏 0 2000m 8 87 1016 もや
5 06:15 静穏 0 4000m 8 87 1015 もや
5 05:45 不定 1 4000m 8 87 1015 もや
5 05:15 不定 1 5000m 8 87 1015 もや
5 04:45 東南東 2 5000m 8 93 1014 もや
5 04:15 不定 1 5000m 9 87 1014 もや
5 03:45 不定 1 5000m 9 87 1014 もや
5 03:15 静穏 0 6000m 9 87 1014
5 02:45 2 6000m 9 87 1014
5 02:15 2 6000m 10 82 1015
5 01:45 不定 1 6000m 10 76 1015
5 01:15 不定 1 6000m 10 82 1016
5 00:45 不定 1 6000m 10 82 1016
5 00:15 2 7000m 10 82 1016
4 23:45 不定 1 7000m 11 76 1016
4 23:15 不定 1 7000m 11 76 1016
4 22:45 東南東 2 7000m 12 71 1016
4 22:15 南東 2 7000m 12 67 1016
4 21:45 南南東 2 7000m 12 67 1016
4 21:15 南南東 2 7000m 13 67 1016
4 20:45 南南西 2 7000m 13 67 1015
4 20:15 南南西 3 7000m 13 67 1015
4 19:45 南西 3 7000m 14 67 1015
4 19:15 南西 4 7000m 14 67 1015
4 18:45 東南東 4 7000m 15 63 1015
4 18:15 南西 4 7000m 15 59 1014
4 17:45 南西 4 7000m 16 55 1014
4 17:15 南西 4 7000m 17 48 1013
4 16:45 西南西 4 7000m 18 45 1013
4 16:15 西南西 4 7000m 19 43 1013
4 15:45 西南西 4 7000m 20 40 1013
4 15:15 西南西 4 8000m 20 37 1014
4 14:45 南西 4 8000m 21 35 1014
4 14:15 南南西 3 8000m 21 33 1014
4 13:45 西南西 3 8000m 21 33 1015
4 13:15 南南西 2 8000m 20 37 1015
4 12:45 南南西 2 8000m 21 38 1016
4 12:15 北北西 2 6000m 20 37 1017
4 11:45 東南東 2 6000m 19 46 1017
4 11:15 東南東 2 5000m 18 49 1018 煙霧
4 10:45 不定 1 5000m 17 48 1018 煙霧
4 10:15 不定 1 4000m 16 55 1019 煙霧
4 09:45 不定 1 3000m 14 63 1018 煙霧
4 09:15 不定 1 2500m 12 71 1018 もや
4 08:45 静穏 0 2000m 11 76 1018 もや
4 08:15 静穏 0 2000m 9 81 1018 もや
4 07:45 静穏 0 2000m 8 87 1017 もや
4 07:15 静穏 0 2500m 7 93 1017 もや
4 06:45 2 3500m 7 87 1017 もや
4 06:15 2 5000m 7 93 1016 もや
4 05:45 2 5000m 7 87 1016 もや
4 05:15 不定 1 5000m 8 87 1015 もや
4 04:45 2 5000m 8 87 1015 もや
4 04:15 不定 1 6000m 8 87 1015
4 03:45 不定 1 6000m 8 87 1016
4 02:45 2 6000m 9 81 1016
VNKT 052030Z VRB02KT 7000 FEW020 09/07 Q1016 NOSIG
VNKT 052000Z 10003KT 7000 FEW020 10/07 Q1017 NOSIG
VNKT 051930Z 10003KT 7000 FEW020 10/07 Q1017 NOSIG
VNKT 051900Z VRB02KT 7000 FEW020 10/07 Q1017 NOSIG
VNKT 051830Z VRB02KT 7000 FEW020 10/07 Q1017 NOSIG
VNKT 051800Z VRB02KT 7000 FEW020 11/07 Q1017 NOSIG
VNKT 051730Z VRB02KT 7000 FEW020 11/07 Q1017 NOSIG
VNKT 051700Z VRB02KT 7000 FEW020 11/07 Q1017 NOSIG
VNKT 051630Z 00000KT 7000 FEW020 12/07 Q1017 NOSIG
VNKT 051600Z 10003KT 7000 FEW020 12/07 Q1017 NOSIG
VNKT 051530Z 15003KT 8000 FEW020 SCT030 12/06 Q1017 NOSIG
VNKT 051500Z 15003KT 8000 FEW020 SCT030 13/06 Q1016 NOSIG
VNKT 051430Z VRB02KT 8000 FEW020 SCT030 13/07 Q1016 NOSIG
VNKT 051400Z 19005KT 8000 FEW020 SCT030 13/07 Q1016 NOSIG
VNKT 051330Z 21005KT 8000 FEW020 SCT030 14/06 Q1016 NOSIG
VNKT 051300Z 21006KT 8000 FEW020 SCT030 14/06 Q1015 NOSIG
VNKT 051230Z 22006KT 8000 FEW020 SCT030 15/06 Q1015 NOSIG
VNKT 051200Z 22009KT 8000 FEW020 SCT100 16/06 Q1014 NOSIG
VNKT 051130Z 23008KT 8000 FEW020 SCT100 17/06 Q1014 NOSIG
VNKT 051100Z 22011KT 7000 FEW020 SCT030 17/05 Q1013 NOSIG
VNKT 051030Z 22010KT 7000 FEW020 SCT030 19/04 Q1013 NOSIG
VNKT 051000Z 22011KT 7000 FEW020 19/03 Q1013 NOSIG
VNKT 050930Z 22010KT 7000 FEW020 19/03 Q1013 NOSIG
VNKT 050900Z 22009KT 7000 FEW020 20/04 Q1014 NOSIG
VNKT 050830Z 21008KT 7000 FEW020 20/04 Q1014 NOSIG
VNKT 050800Z 14004KT 7000 FEW020 20/06 Q1014 NOSIG
VNKT 050730Z 23004KT 7000 FEW020 20/06 Q1015 NOSIG
VNKT 050700Z 09003KT 7000 FEW020 20/05 Q1015 NOSIG
VNKT 050630Z 07004KT 7000 FEW020 20/05 Q1016 NOSIG
VNKT 050600Z 07005KT 6000 FEW015 18/04 Q1016 NOSIG
VNKT 050530Z 14003KT 6000 FEW015 18/06 Q1017 NOSIG
VNKT 050500Z 11003KT 4500 HZ FEW015 17/07 Q1017 NOSIG
VNKT 050430Z VRB02KT 4000 HZ FEW015 15/07 Q1018 NOSIG
VNKT 050400Z VRB02KT 3500 HZ FEW015 14/07 Q1018 NOSIG
VNKT 050330Z VRB02KT 3000 BR FEW010 12/07 Q1018 NOSIG
VNKT 050300Z VRB02KT 2500 BR FEW010 10/07 Q1018 NOSIG
VNKT 050230Z VRB02KT 2500 BR FEW010 09/07 Q1017 NOSIG
VNKT 050200Z VRB02KT 2000 BR FEW010 08/06 Q1017 NOSIG
VNKT 050130Z VRB02KT 1500 BR FEW010 SCT030 08/06 Q1016 NOSIG
VNKT 050100Z 00000KT 2000 BR FEW010 SCT030 08/06 Q1016 NOSIG
VNKT 050030Z 00000KT 4000 BR FEW010 08/06 Q1015 NOSIG
VNKT 050000Z VRB02KT 4000 BR FEW010 08/06 Q1015 NOSIG
VNKT 042330Z VRB02KT 5000 BR FEW015 08/06 Q1015 NOSIG
VNKT 042300Z 12003KT 5000 BR FEW015 08/07 Q1014 NOSIG
VNKT 042230Z VRB02KT 5000 BR FEW015 09/07 Q1014 NOSIG
VNKT 042200Z VRB02KT 5000 BR FEW015 09/07 Q1014 NOSIG
VNKT 042130Z 00000KT 6000 FEW015 09/07 Q1014 NOSIG
VNKT 042100Z 09003KT 6000 FEW015 09/07 Q1014 NOSIG
VNKT 042030Z 08003KT 6000 FEW015 10/07 Q1015 NOSIG
VNKT 042000Z VRB02KT 6000 FEW015 10/06 Q1015 NOSIG
VNKT 041930Z VRB02KT 6000 FEW015 10/07 Q1016 NOSIG
VNKT 041900Z VRB02KT 6000 FEW015 10/07 Q1016 NOSIG
VNKT 041830Z 10003KT 7000 FEW015 10/07 Q1016 NOSIG
VNKT 041800Z VRB02KT 7000 FEW015 SCT100 11/07 Q1016 NOSIG
VNKT 041730Z VRB02KT 7000 FEW015 11/07 Q1016 NOSIG
VNKT 041700Z 11003KT 7000 FEW015 12/07 Q1016 NOSIG
VNKT 041630Z 13003KT 7000 FEW015 12/06 Q1016 NOSIG
VNKT 041600Z 15003KT 7000 FEW015 12/06 Q1016 NOSIG
VNKT 041530Z 15003KT 7000 FEW015 13/07 Q1016 NOSIG
VNKT 041500Z 20004KT 7000 FEW015 13/07 Q1015 NOSIG
VNKT 041430Z 20005KT 7000 FEW015 13/07 Q1015 NOSIG
VNKT 041400Z 22006KT 7000 FEW015 14/08 Q1015 NOSIG
VNKT 041330Z 22007KT 7000 FEW015 14/08 Q1015 NOSIG
VNKT 041300Z 12007KT 190V250 7000 FEW020 15/08 Q1015 NOSIG
VNKT 041230Z 22008KT 7000 FEW020 15/07 Q1014 NOSIG
VNKT 041200Z 22008KT 7000 FEW020 16/07 Q1014 NOSIG
VNKT 041130Z 23007KT 7000 FEW020 17/06 Q1013 NOSIG
VNKT 041100Z 25007KT 220V290 7000 FEW020 18/06 Q1013 NOSIG
VNKT 041030Z 25007KT 200V300 7000 FEW020 19/06 Q1013 NOSIG
VNKT 041000Z 25007KT 210V290 7000 FEW020 20/06 Q1013 NOSIG
VNKT 040930Z 24008KT 210V270 8000 FEW020 20/05 Q1014 NOSIG
VNKT 040900Z 22008KT 190V280 8000 FEW020 21/05 Q1014 NOSIG
VNKT 040830Z 20006KT 100V220 8000 FEW020 21/04 Q1014 NOSIG
VNKT 040800Z 25005KT 8000 FEW020 21/04 Q1015 NOSIG
VNKT 040730Z 20004KT 8000 FEW020 20/05 Q1015 NOSIG
VNKT 040700Z 21004KT 8000 FEW020 21/06 Q1016 NOSIG
VNKT 040630Z 33003KT 6000 FEW015 20/05 Q1017 NOSIG
VNKT 040600Z 12003KT 6000 FEW015 19/07 Q1017 NOSIG
VNKT 040530Z 12003KT 5000 HZ FEW015 18/07 Q1018 NOSIG
VNKT 040500Z VRB02KT 5000 HZ FEW015 17/06 Q1018 NOSIG
VNKT 040430Z VRB02KT 4000 HZ FEW015 16/07 Q1019 NOSIG
VNKT 040400Z VRB02KT 3000 HZ FEW015 14/07 Q1018 BECMG FM0500Z 4000 HZ
VNKT 040330Z VRB02KT 2500 BR FEW015 12/07 Q1018 BECMG FM0430Z 3500 HZ
VNKT 040300Z 00000KT 2000 BR FEW015 11/07 Q1018 NOSIG
VNKT 040230Z 00000KT 2000 BR FEW015 09/06 Q1018 NOSIG
VNKT 040200Z 00000KT 2000 BR FEW015 08/06 Q1017 NOSIG
VNKT 040130Z 00000KT 2500 BR FEW015 07/06 Q1017 NOSIG
VNKT 040100Z 08003KT 3500 BR FEW015 07/05 Q1017 NOSIG
VNKT 040030Z 10003KT 5000 BR FEW015 07/06 Q1016 NOSIG
VNKT 040000Z 09003KT 5000 BR FEW015 07/05 Q1016 NOSIG
VNKT 032330Z VRB02KT 5000 BR FEW015 08/06 Q1015 NOSIG
VNKT 032300Z 09003KT 5000 BR FEW015 08/06 Q1015 NOSIG
VNKT 032230Z VRB02KT 6000 FEW015 08/06 Q1015 NOSIG
VNKT 032200Z VRB02KT 6000 FEW015 08/06 Q1016 NOSIG
VNKT 032100Z 09003KT 6000 FEW015 09/06 Q1016 NOSIG